sensor_id;sensor_type;location;lat;lon;timestamp;temperature;humidity
8858;DHT22;4465;50.904;4.696;2023-06-26T00:00:50;23.70;94.00
8858;DHT22;4465;50.904;4.696;2023-06-26T00:03:18;23.70;93.80
8858;DHT22;4465;50.904;4.696;2023-06-26T00:05:46;23.60;93.90
8858;DHT22;4465;50.904;4.696;2023-06-26T00:08:12;23.60;94.20
8858;DHT22;4465;50.904;4.696;2023-06-26T00:10:38;23.60;94.20
8858;DHT22;4465;50.904;4.696;2023-06-26T00:13:06;23.50;94.40
8858;DHT22;4465;50.904;4.696;2023-06-26T00:15:32;23.50;94.50
8858;DHT22;4465;50.904;4.696;2023-06-26T00:17:58;23.40;94.30
8858;DHT22;4465;50.904;4.696;2023-06-26T00:20:24;23.40;94.20
8858;DHT22;4465;50.904;4.696;2023-06-26T00:22:51;23.40;94.30
8858;DHT22;4465;50.904;4.696;2023-06-26T00:25:23;23.30;94.40
8858;DHT22;4465;50.904;4.696;2023-06-26T00:27:51;23.20;94.80
8858;DHT22;4465;50.904;4.696;2023-06-26T00:30:19;23.20;95.00
8858;DHT22;4465;50.904;4.696;2023-06-26T00:32:45;23.10;94.80
8858;DHT22;4465;50.904;4.696;2023-06-26T00:35:11;23.10;94.80
8858;DHT22;4465;50.904;4.696;2023-06-26T00:37:37;23.00;94.80
8858;DHT22;4465;50.904;4.696;2023-06-26T00:40:03;23.00;94.50
8858;DHT22;4465;50.904;4.696;2023-06-26T00:42:33;22.90;94.40
8858;DHT22;4465;50.904;4.696;2023-06-26T00:45:02;22.90;94.50
8858;DHT22;4465;50.904;4.696;2023-06-26T00:47:28;22.80;95.20
8858;DHT22;4465;50.904;4.696;2023-06-26T00:49:57;22.80;95.10
8858;DHT22;4465;50.904;4.696;2023-06-26T00:52:25;22.70;95.10
8858;DHT22;4465;50.904;4.696;2023-06-26T00:54:51;22.70;95.20
8858;DHT22;4465;50.904;4.696;2023-06-26T00:57:20;22.70;95.00
8858;DHT22;4465;50.904;4.696;2023-06-26T00:59:48;22.60;94.90
8858;DHT22;4465;50.904;4.696;2023-06-26T01:02:16;22.60;95.30
8858;DHT22;4465;50.904;4.696;2023-06-26T01:04:49;22.50;94.80
8858;DHT22;4465;50.904;4.696;2023-06-26T01:07:18;22.40;94.70
8858;DHT22;4465;50.904;4.696;2023-06-26T01:09:48;22.40;94.80
8858;DHT22;4465;50.904;4.696;2023-06-26T01:12:15;22.30;94.80
8858;DHT22;4465;50.904;4.696;2023-06-26T01:14:43;22.30;94.50
8858;DHT22;4465;50.904;4.696;2023-06-26T01:17:11;22.20;94.40
8858;DHT22;4465;50.904;4.696;2023-06-26T01:19:43;22.10;94.50
8858;DHT22;4465;50.904;4.696;2023-06-26T01:22:27;22.00;94.50
8858;DHT22;4465;50.904;4.696;2023-06-26T01:27:48;21.80;94.50
8858;DHT22;4465;50.904;4.696;2023-06-26T01:30:16;21.80;94.40
8858;DHT22;4465;50.904;4.696;2023-06-26T01:32:47;21.80;94.30
8858;DHT22;4465;50.904;4.696;2023-06-26T01:35:13;21.70;94.60
8858;DHT22;4465;50.904;4.696;2023-06-26T01:37:40;21.70;94.90
8858;DHT22;4465;50.904;4.696;2023-06-26T01:40:08;21.60;95.00
8858;DHT22;4465;50.904;4.696;2023-06-26T01:42:35;21.60;95.10
8858;DHT22;4465;50.904;4.696;2023-06-26T01:45:12;21.50;95.10
8858;DHT22;4465;50.904;4.696;2023-06-26T01:47:45;21.50;95.80
8858;DHT22;4465;50.904;4.696;2023-06-26T01:50:27;21.40;95.30
8858;DHT22;4465;50.904;4.696;2023-06-26T01:55:42;21.40;95.20
8858;DHT22;4465;50.904;4.696;2023-06-26T01:58:16;21.30;95.70
8858;DHT22;4465;50.904;4.696;2023-06-26T02:00:43;21.30;95.70
8858;DHT22;4465;50.904;4.696;2023-06-26T02:03:12;21.20;95.40
8858;DHT22;4465;50.904;4.696;2023-06-26T02:05:40;21.20;95.60
8858;DHT22;4465;50.904;4.696;2023-06-26T02:08:08;21.20;95.70
8858;DHT22;4465;50.904;4.696;2023-06-26T02:10:34;21.20;96.40
8858;DHT22;4465;50.904;4.696;2023-06-26T02:13:01;21.10;96.10
8858;DHT22;4465;50.904;4.696;2023-06-26T02:15:27;21.10;96.10
8858;DHT22;4465;50.904;4.696;2023-06-26T02:17:53;21.10;96.40
8858;DHT22;4465;50.904;4.696;2023-06-26T02:20:18;21.00;96.10
8858;DHT22;4465;50.904;4.696;2023-06-26T02:22:44;21.00;96.40
8858;DHT22;4465;50.904;4.696;2023-06-26T02:25:14;20.90;96.80
8858;DHT22;4465;50.904;4.696;2023-06-26T02:27:40;21.00;96.40
8858;DHT22;4465;50.904;4.696;2023-06-26T02:30:12;20.90;96.50
8858;DHT22;4465;50.904;4.696;2023-06-26T02:32:40;20.80;96.30
8858;DHT22;4465;50.904;4.696;2023-06-26T02:35:07;20.80;96.40
8858;DHT22;4465;50.904;4.696;2023-06-26T02:37:33;20.80;96.40
8858;DHT22;4465;50.904;4.696;2023-06-26T02:39:59;20.80;96.70
8858;DHT22;4465;50.904;4.696;2023-06-26T02:42:27;20.70;96.10
8858;DHT22;4465;50.904;4.696;2023-06-26T02:44:58;20.70;96.50
8858;DHT22;4465;50.904;4.696;2023-06-26T02:47:24;20.70;96.40
8858;DHT22;4465;50.904;4.696;2023-06-26T02:49:49;20.60;96.50
8858;DHT22;4465;50.904;4.696;2023-06-26T02:52:15;20.60;96.60
8858;DHT22;4465;50.904;4.696;2023-06-26T02:54:43;20.60;97.00
8858;DHT22;4465;50.904;4.696;2023-06-26T02:57:11;20.60;97.60
8858;DHT22;4465;50.904;4.696;2023-06-26T02:59:40;20.50;97.30
8858;DHT22;4465;50.904;4.696;2023-06-26T03:02:08;20.50;97.40
8858;DHT22;4465;50.904;4.696;2023-06-26T03:04:34;20.50;98.10
8858;DHT22;4465;50.904;4.696;2023-06-26T03:07:04;20.40;97.50
8858;DHT22;4465;50.904;4.696;2023-06-26T03:09:33;20.40;97.40
8858;DHT22;4465;50.904;4.696;2023-06-26T03:12:02;20.50;97.80
8858;DHT22;4465;50.904;4.696;2023-06-26T03:14:28;20.40;98.10
8858;DHT22;4465;50.904;4.696;2023-06-26T03:16:55;20.50;98.40
8858;DHT22;4465;50.904;4.696;2023-06-26T03:19:23;20.40;98.60
8858;DHT22;4465;50.904;4.696;2023-06-26T03:21:51;20.40;99.20
8858;DHT22;4465;50.904;4.696;2023-06-26T03:24:17;20.40;99.00
8858;DHT22;4465;50.904;4.696;2023-06-26T03:26:43;20.40;98.80
8858;DHT22;4465;50.904;4.696;2023-06-26T03:29:12;20.40;98.90
8858;DHT22;4465;50.904;4.696;2023-06-26T03:31:38;20.40;98.90
8858;DHT22;4465;50.904;4.696;2023-06-26T03:34:07;20.40;99.80
8858;DHT22;4465;50.904;4.696;2023-06-26T03:36:32;20.40;99.90
8858;DHT22;4465;50.904;4.696;2023-06-26T03:38:58;20.30;99.90
8858;DHT22;4465;50.904;4.696;2023-06-26T03:41:29;20.30;99.90
8858;DHT22;4465;50.904;4.696;2023-06-26T03:43:55;20.30;99.90
8858;DHT22;4465;50.904;4.696;2023-06-26T03:46:22;20.20;99.90
8858;DHT22;4465;50.904;4.696;2023-06-26T03:48:48;20.20;99.90
8858;DHT22;4465;50.904;4.696;2023-06-26T03:51:15;20.20;99.90
8858;DHT22;4465;50.904;4.696;2023-06-26T03:53:40;20.10;99.90
8858;DHT22;4465;50.904;4.696;2023-06-26T03:56:09;20.10;99.90
8858;DHT22;4465;50.904;4.696;2023-06-26T03:58:38;20.00;99.90
8858;DHT22;4465;50.904;4.696;2023-06-26T04:01:03;20.00;99.90
8858;DHT22;4465;50.904;4.696;2023-06-26T04:03:30;20.00;99.90
8858;DHT22;4465;50.904;4.696;2023-06-26T04:05:59;20.00;99.90
8858;DHT22;4465;50.904;4.696;2023-06-26T04:08:25;19.90;99.90
8858;DHT22;4465;50.904;4.696;2023-06-26T04:10:56;19.90;99.90
8858;DHT22;4465;50.904;4.696;2023-06-26T04:13:26;19.90;99.90
8858;DHT22;4465;50.904;4.696;2023-06-26T04:15:52;19.80;99.90
8858;DHT22;4465;50.904;4.696;2023-06-26T04:18:20;19.80;99.90
8858;DHT22;4465;50.904;4.696;2023-06-26T04:21:16;19.80;99.90
8858;DHT22;4465;50.904;4.696;2023-06-26T04:23:45;19.70;99.90
8858;DHT22;4465;50.904;4.696;2023-06-26T04:26:11;19.70;99.90
8858;DHT22;4465;50.904;4.696;2023-06-26T04:28:42;19.70;99.90
8858;DHT22;4465;50.904;4.696;2023-06-26T04:31:10;19.60;99.90
8858;DHT22;4465;50.904;4.696;2023-06-26T04:33:36;19.60;99.90
8858;DHT22;4465;50.904;4.696;2023-06-26T04:36:04;19.60;99.90
8858;DHT22;4465;50.904;4.696;2023-06-26T04:38:33;19.60;99.90
8858;DHT22;4465;50.904;4.696;2023-06-26T04:41:02;19.60;99.90
8858;DHT22;4465;50.904;4.696;2023-06-26T04:43:31;19.60;99.90
8858;DHT22;4465;50.904;4.696;2023-06-26T04:45:57;19.60;99.90
8858;DHT22;4465;50.904;4.696;2023-06-26T04:48:25;19.60;99.90
8858;DHT22;4465;50.904;4.696;2023-06-26T04:50:59;19.60;99.90
8858;DHT22;4465;50.904;4.696;2023-06-26T04:53:25;19.60;99.90
8858;DHT22;4465;50.904;4.696;2023-06-26T04:55:52;19.60;99.90
8858;DHT22;4465;50.904;4.696;2023-06-26T04:58:19;19.60;99.90
8858;DHT22;4465;50.904;4.696;2023-06-26T05:00:45;19.60;99.90
8858;DHT22;4465;50.904;4.696;2023-06-26T05:03:16;19.50;99.90
8858;DHT22;4465;50.904;4.696;2023-06-26T05:05:42;19.50;99.90
8858;DHT22;4465;50.904;4.696;2023-06-26T05:08:17;19.50;99.90
8858;DHT22;4465;50.904;4.696;2023-06-26T05:10:46;19.40;99.90
8858;DHT22;4465;50.904;4.696;2023-06-26T05:13:12;19.40;99.90
8858;DHT22;4465;50.904;4.696;2023-06-26T05:15:41;19.40;99.90
8858;DHT22;4465;50.904;4.696;2023-06-26T05:18:08;19.40;99.90
8858;DHT22;4465;50.904;4.696;2023-06-26T05:20:35;19.40;99.90
8858;DHT22;4465;50.904;4.696;2023-06-26T05:23:05;19.30;99.90
8858;DHT22;4465;50.904;4.696;2023-06-26T05:25:31;19.30;99.90
8858;DHT22;4465;50.904;4.696;2023-06-26T05:28:00;19.30;99.90
8858;DHT22;4465;50.904;4.696;2023-06-26T05:30:27;19.30;99.90
8858;DHT22;4465;50.904;4.696;2023-06-26T05:32:54;19.40;99.90
8858;DHT22;4465;50.904;4.696;2023-06-26T05:35:20;19.40;99.90
8858;DHT22;4465;50.904;4.696;2023-06-26T05:37:51;19.40;99.90
8858;DHT22;4465;50.904;4.696;2023-06-26T05:40:18;19.40;99.90
8858;DHT22;4465;50.904;4.696;2023-06-26T05:42:45;19.50;99.90
8858;DHT22;4465;50.904;4.696;2023-06-26T05:45:11;19.40;99.90
8858;DHT22;4465;50.904;4.696;2023-06-26T05:47:40;19.40;99.90
8858;DHT22;4465;50.904;4.696;2023-06-26T05:50:09;19.50;99.90
8858;DHT22;4465;50.904;4.696;2023-06-26T05:52:36;19.50;99.90
8858;DHT22;4465;50.904;4.696;2023-06-26T05:55:05;19.60;99.90
8858;DHT22;4465;50.904;4.696;2023-06-26T05:57:31;19.60;99.90
8858;DHT22;4465;50.904;4.696;2023-06-26T06:00:00;19.60;99.90
8858;DHT22;4465;50.904;4.696;2023-06-26T06:02:28;19.60;99.90
8858;DHT22;4465;50.904;4.696;2023-06-26T06:04:54;19.70;99.90
8858;DHT22;4465;50.904;4.696;2023-06-26T06:07:20;19.60;99.90
8858;DHT22;4465;50.904;4.696;2023-06-26T06:09:47;19.60;99.90
8858;DHT22;4465;50.904;4.696;2023-06-26T06:12:13;19.60;99.90
8858;DHT22;4465;50.904;4.696;2023-06-26T06:14:41;19.70;99.90
8858;DHT22;4465;50.904;4.696;2023-06-26T06:17:10;19.70;99.90
8858;DHT22;4465;50.904;4.696;2023-06-26T06:19:38;19.60;99.90
8858;DHT22;4465;50.904;4.696;2023-06-26T06:22:06;19.70;99.90
8858;DHT22;4465;50.904;4.696;2023-06-26T06:24:34;19.70;99.90
8858;DHT22;4465;50.904;4.696;2023-06-26T06:27:00;19.80;99.90
8858;DHT22;4465;50.904;4.696;2023-06-26T06:29:31;19.90;99.90
8858;DHT22;4465;50.904;4.696;2023-06-26T06:32:00;19.90;99.90
8858;DHT22;4465;50.904;4.696;2023-06-26T06:34:26;19.90;99.90
8858;DHT22;4465;50.904;4.696;2023-06-26T06:36:52;19.90;99.90
8858;DHT22;4465;50.904;4.696;2023-06-26T06:39:18;20.00;99.90
8858;DHT22;4465;50.904;4.696;2023-06-26T06:41:46;19.90;99.90
8858;DHT22;4465;50.904;4.696;2023-06-26T06:44:14;20.00;99.90
8858;DHT22;4465;50.904;4.696;2023-06-26T06:46:41;20.00;99.90
8858;DHT22;4465;50.904;4.696;2023-06-26T06:49:12;20.00;99.90
8858;DHT22;4465;50.904;4.696;2023-06-26T06:51:38;20.10;99.90
8858;DHT22;4465;50.904;4.696;2023-06-26T06:54:06;20.10;99.90
8858;DHT22;4465;50.904;4.696;2023-06-26T06:56:32;20.20;99.90
8858;DHT22;4465;50.904;4.696;2023-06-26T06:58:58;20.30;99.90
8858;DHT22;4465;50.904;4.696;2023-06-26T07:01:26;20.40;99.90
8858;DHT22;4465;50.904;4.696;2023-06-26T07:03:54;20.50;99.90
8858;DHT22;4465;50.904;4.696;2023-06-26T07:06:20;20.60;99.90
8858;DHT22;4465;50.904;4.696;2023-06-26T07:08:46;20.60;99.90
8858;DHT22;4465;50.904;4.696;2023-06-26T07:11:12;20.60;99.90
8858;DHT22;4465;50.904;4.696;2023-06-26T07:13:40;20.60;99.90
8858;DHT22;4465;50.904;4.696;2023-06-26T07:16:08;20.60;99.90
8858;DHT22;4465;50.904;4.696;2023-06-26T07:18:38;20.70;99.90
8858;DHT22;4465;50.904;4.696;2023-06-26T07:21:04;20.80;99.90
8858;DHT22;4465;50.904;4.696;2023-06-26T07:23:35;20.80;99.90
8858;DHT22;4465;50.904;4.696;2023-06-26T07:26:03;20.80;99.90
8858;DHT22;4465;50.904;4.696;2023-06-26T07:28:29;20.90;99.90
8858;DHT22;4465;50.904;4.696;2023-06-26T07:30:55;20.90;99.90
8858;DHT22;4465;50.904;4.696;2023-06-26T07:33:23;20.90;99.90
8858;DHT22;4465;50.904;4.696;2023-06-26T07:35:49;21.00;99.90
8858;DHT22;4465;50.904;4.696;2023-06-26T07:38:17;21.10;99.90
8858;DHT22;4465;50.904;4.696;2023-06-26T07:40:43;21.20;99.90
8858;DHT22;4465;50.904;4.696;2023-06-26T07:43:09;21.20;99.90
8858;DHT22;4465;50.904;4.696;2023-06-26T07:45:35;21.30;99.90
8858;DHT22;4465;50.904;4.696;2023-06-26T07:48:01;21.30;99.90
8858;DHT22;4465;50.904;4.696;2023-06-26T07:50:27;21.30;99.90
8858;DHT22;4465;50.904;4.696;2023-06-26T07:52:58;21.30;99.90
8858;DHT22;4465;50.904;4.696;2023-06-26T07:55:26;21.30;99.90
8858;DHT22;4465;50.904;4.696;2023-06-26T07:57:52;21.40;99.90
8858;DHT22;4465;50.904;4.696;2023-06-26T08:00:19;21.50;99.90
8858;DHT22;4465;50.904;4.696;2023-06-26T08:02:47;21.50;99.90
8858;DHT22;4465;50.904;4.696;2023-06-26T08:05:13;21.60;99.90
8858;DHT22;4465;50.904;4.696;2023-06-26T08:07:39;21.70;99.90
8858;DHT22;4465;50.904;4.696;2023-06-26T08:10:05;21.70;99.90
8858;DHT22;4465;50.904;4.696;2023-06-26T08:12:36;21.70;99.90
8858;DHT22;4465;50.904;4.696;2023-06-26T08:15:06;21.80;99.90
8858;DHT22;4465;50.904;4.696;2023-06-26T08:17:32;21.80;99.90
8858;DHT22;4465;50.904;4.696;2023-06-26T08:19:58;21.80;99.90
8858;DHT22;4465;50.904;4.696;2023-06-26T08:22:24;21.90;99.90
8858;DHT22;4465;50.904;4.696;2023-06-26T08:24:52;21.90;99.90
8858;DHT22;4465;50.904;4.696;2023-06-26T08:27:18;22.00;99.90
8858;DHT22;4465;50.904;4.696;2023-06-26T08:29:44;22.10;99.90
8858;DHT22;4465;50.904;4.696;2023-06-26T08:32:10;22.20;99.90
8858;DHT22;4465;50.904;4.696;2023-06-26T08:34:38;22.40;99.90
8858;DHT22;4465;50.904;4.696;2023-06-26T08:37:07;22.60;99.90
8858;DHT22;4465;50.904;4.696;2023-06-26T08:39:35;22.80;99.90
8858;DHT22;4465;50.904;4.696;2023-06-26T08:42:01;23.10;99.70
8858;DHT22;4465;50.904;4.696;2023-06-26T08:44:26;23.10;99.30
8858;DHT22;4465;50.904;4.696;2023-06-26T08:46:52;23.10;98.70
8858;DHT22;4465;50.904;4.696;2023-06-26T08:49:21;23.00;98.00
8858;DHT22;4465;50.904;4.696;2023-06-26T08:52:02;22.80;98.30
8858;DHT22;4465;50.904;4.696;2023-06-26T08:54:36;22.70;98.70
8858;DHT22;4465;50.904;4.696;2023-06-26T08:57:05;22.70;99.00
8858;DHT22;4465;50.904;4.696;2023-06-26T08:59:34;22.80;99.30
8858;DHT22;4465;50.904;4.696;2023-06-26T09:02:00;22.80;98.70
8858;DHT22;4465;50.904;4.696;2023-06-26T09:04:27;22.90;98.90
8858;DHT22;4465;50.904;4.696;2023-06-26T09:06:52;22.90;98.30
8858;DHT22;4465;50.904;4.696;2023-06-26T09:09:21;22.90;98.20
8858;DHT22;4465;50.904;4.696;2023-06-26T09:11:47;23.00;98.70
8858;DHT22;4465;50.904;4.696;2023-06-26T09:14:17;23.00;98.60
8858;DHT22;4465;50.904;4.696;2023-06-26T09:16:45;23.10;97.60
8858;DHT22;4465;50.904;4.696;2023-06-26T09:19:15;23.00;97.30
8858;DHT22;4465;50.904;4.696;2023-06-26T09:21:42;23.00;97.40
8858;DHT22;4465;50.904;4.696;2023-06-26T09:24:09;23.10;97.50
8858;DHT22;4465;50.904;4.696;2023-06-26T09:26:37;23.00;97.10
8858;DHT22;4465;50.904;4.696;2023-06-26T09:29:03;23.00;96.80
8858;DHT22;4465;50.904;4.696;2023-06-26T09:31:38;22.90;97.30
8858;DHT22;4465;50.904;4.696;2023-06-26T09:34:08;22.90;97.50
8858;DHT22;4465;50.904;4.696;2023-06-26T09:36:34;23.00;97.40
8858;DHT22;4465;50.904;4.696;2023-06-26T09:39:07;23.00;97.50
8858;DHT22;4465;50.904;4.696;2023-06-26T09:41:37;23.00;97.30
8858;DHT22;4465;50.904;4.696;2023-06-26T09:44:04;22.80;96.60
8858;DHT22;4465;50.904;4.696;2023-06-26T09:46:31;22.70;96.80
8858;DHT22;4465;50.904;4.696;2023-06-26T09:49:17;22.70;97.30
8858;DHT22;4465;50.904;4.696;2023-06-26T09:51:43;22.60;96.80
8858;DHT22;4465;50.904;4.696;2023-06-26T09:54:10;22.60;96.80
8858;DHT22;4465;50.904;4.696;2023-06-26T09:56:36;22.50;96.80
8858;DHT22;4465;50.904;4.696;2023-06-26T09:59:06;22.50;97.10
8858;DHT22;4465;50.904;4.696;2023-06-26T10:01:33;22.50;97.10
8858;DHT22;4465;50.904;4.696;2023-06-26T10:03:59;22.60;96.70
8858;DHT22;4465;50.904;4.696;2023-06-26T10:06:33;22.60;96.10
8858;DHT22;4465;50.904;4.696;2023-06-26T10:09:02;22.60;96.70
8858;DHT22;4465;50.904;4.696;2023-06-26T10:11:54;22.60;96.10
8858;DHT22;4465;50.904;4.696;2023-06-26T10:14:21;22.60;95.80
8858;DHT22;4465;50.904;4.696;2023-06-26T10:16:57;22.50;95.80
8858;DHT22;4465;50.904;4.696;2023-06-26T10:19:25;22.40;94.30
8858;DHT22;4465;50.904;4.696;2023-06-26T10:21:53;22.40;94.30
8858;DHT22;4465;50.904;4.696;2023-06-26T10:24:23;22.40;94.70
8858;DHT22;4465;50.904;4.696;2023-06-26T10:26:54;22.40;94.70
8858;DHT22;4465;50.904;4.696;2023-06-26T10:29:24;22.40;94.30
8858;DHT22;4465;50.904;4.696;2023-06-26T10:31:54;22.40;94.60
8858;DHT22;4465;50.904;4.696;2023-06-26T10:34:21;22.40;94.50
8858;DHT22;4465;50.904;4.696;2023-06-26T10:36:47;22.50;94.40
8858;DHT22;4465;50.904;4.696;2023-06-26T10:39:26;22.60;93.60
8858;DHT22;4465;50.904;4.696;2023-06-26T10:41:54;22.70;94.20
8858;DHT22;4465;50.904;4.696;2023-06-26T10:44:23;22.90;94.50
8858;DHT22;4465;50.904;4.696;2023-06-26T10:46:54;23.00;93.90
8858;DHT22;4465;50.904;4.696;2023-06-26T10:49:24;23.10;93.30
8858;DHT22;4465;50.904;4.696;2023-06-26T10:51:51;23.20;93.40
8858;DHT22;4465;50.904;4.696;2023-06-26T10:54:20;23.20;93.10
8858;DHT22;4465;50.904;4.696;2023-06-26T10:56:48;23.30;93.50
8858;DHT22;4465;50.904;4.696;2023-06-26T10:59:22;23.40;92.70
8858;DHT22;4465;50.904;4.696;2023-06-26T11:02:06;23.50;92.50
8858;DHT22;4465;50.904;4.696;2023-06-26T11:04:38;23.60;93.10
8858;DHT22;4465;50.904;4.696;2023-06-26T11:12:39;24.30;91.60
8858;DHT22;4465;50.904;4.696;2023-06-26T11:15:13;24.40;92.10
8858;DHT22;4465;50.904;4.696;2023-06-26T11:17:39;24.50;92.70
8858;DHT22;4465;50.904;4.696;2023-06-26T11:20:07;24.70;93.50
8858;DHT22;4465;50.904;4.696;2023-06-26T11:22:43;25.00;92.00
8858;DHT22;4465;50.904;4.696;2023-06-26T11:25:10;25.30;92.60
8858;DHT22;4465;50.904;4.696;2023-06-26T11:27:43;25.40;91.70
8858;DHT22;4465;50.904;4.696;2023-06-26T11:30:23;25.40;91.00
8858;DHT22;4465;50.904;4.696;2023-06-26T11:32:49;25.20;91.10
8858;DHT22;4465;50.904;4.696;2023-06-26T11:35:25;25.20;91.70
8858;DHT22;4465;50.904;4.696;2023-06-26T11:38:01;25.50;91.50
8858;DHT22;4465;50.904;4.696;2023-06-26T11:40:34;26.00;91.80
8858;DHT22;4465;50.904;4.696;2023-06-26T11:43:01;26.60;93.20
8858;DHT22;4465;50.904;4.696;2023-06-26T11:45:30;27.10;89.60
8858;DHT22;4465;50.904;4.696;2023-06-26T11:48:00;27.50;91.30
8858;DHT22;4465;50.904;4.696;2023-06-26T11:50:28;27.80;88.50
8858;DHT22;4465;50.904;4.696;2023-06-26T11:52:58;27.50;81.30
8858;DHT22;4465;50.904;4.696;2023-06-26T11:55:26;27.10;82.40
8858;DHT22;4465;50.904;4.696;2023-06-26T11:57:57;26.80;85.60
8858;DHT22;4465;50.904;4.696;2023-06-26T12:00:23;26.80;85.70
8858;DHT22;4465;50.904;4.696;2023-06-26T12:02:49;26.70;83.50
8858;DHT22;4465;50.904;4.696;2023-06-26T12:05:17;26.50;84.00
8858;DHT22;4465;50.904;4.696;2023-06-26T12:07:45;26.20;85.00
8858;DHT22;4465;50.904;4.696;2023-06-26T12:10:11;26.00;84.50
8858;DHT22;4465;50.904;4.696;2023-06-26T12:12:41;25.60;84.70
8858;DHT22;4465;50.904;4.696;2023-06-26T12:15:15;25.60;85.60
8858;DHT22;4465;50.904;4.696;2023-06-26T12:17:41;25.80;86.80
8858;DHT22;4465;50.904;4.696;2023-06-26T12:20:22;25.70;83.20
8858;DHT22;4465;50.904;4.696;2023-06-26T12:22:50;25.70;83.40
8858;DHT22;4465;50.904;4.696;2023-06-26T12:25:22;25.40;83.20
8858;DHT22;4465;50.904;4.696;2023-06-26T12:27:48;25.20;83.80
8858;DHT22;4465;50.904;4.696;2023-06-26T12:30:15;25.00;83.20
8858;DHT22;4465;50.904;4.696;2023-06-26T12:32:45;24.80;82.70
8858;DHT22;4465;50.904;4.696;2023-06-26T12:35:12;24.70;84.50
8858;DHT22;4465;50.904;4.696;2023-06-26T12:37:38;24.50;84.30
8858;DHT22;4465;50.904;4.696;2023-06-26T12:40:20;24.40;84.80
8858;DHT22;4465;50.904;4.696;2023-06-26T12:42:49;24.30;86.00
8858;DHT22;4465;50.904;4.696;2023-06-26T12:45:15;24.30;85.60
8858;DHT22;4465;50.904;4.696;2023-06-26T12:47:43;24.60;85.20
8858;DHT22;4465;50.904;4.696;2023-06-26T12:50:12;24.60;84.10
8858;DHT22;4465;50.904;4.696;2023-06-26T12:52:43;24.70;82.70
8858;DHT22;4465;50.904;4.696;2023-06-26T12:55:09;24.60;83.00
8858;DHT22;4465;50.904;4.696;2023-06-26T12:57:37;24.60;85.60
8858;DHT22;4465;50.904;4.696;2023-06-26T13:00:03;24.90;86.20
8858;DHT22;4465;50.904;4.696;2023-06-26T13:02:30;25.20;87.30
8858;DHT22;4465;50.904;4.696;2023-06-26T13:05:01;25.50;86.30
8858;DHT22;4465;50.904;4.696;2023-06-26T13:07:29;25.50;81.00
8858;DHT22;4465;50.904;4.696;2023-06-26T13:09:55;25.50;82.80
8858;DHT22;4465;50.904;4.696;2023-06-26T13:12:21;25.50;82.30
8858;DHT22;4465;50.904;4.696;2023-06-26T13:14:50;25.40;82.40
8858;DHT22;4465;50.904;4.696;2023-06-26T13:17:16;25.40;81.60
8858;DHT22;4465;50.904;4.696;2023-06-26T13:19:44;25.30;80.90
8858;DHT22;4465;50.904;4.696;2023-06-26T13:22:10;25.20;81.50
8858;DHT22;4465;50.904;4.696;2023-06-26T13:24:42;25.10;79.30
8858;DHT22;4465;50.904;4.696;2023-06-26T13:27:08;24.80;80.80
8858;DHT22;4465;50.904;4.696;2023-06-26T13:29:36;24.80;82.50
8858;DHT22;4465;50.904;4.696;2023-06-26T13:32:02;24.70;83.40
8858;DHT22;4465;50.904;4.696;2023-06-26T13:34:29;24.70;83.20
8858;DHT22;4465;50.904;4.696;2023-06-26T13:36:57;24.60;83.10
8858;DHT22;4465;50.904;4.696;2023-06-26T13:39:25;24.50;82.40
8858;DHT22;4465;50.904;4.696;2023-06-26T13:41:54;24.40;82.30
8858;DHT22;4465;50.904;4.696;2023-06-26T13:44:24;24.30;82.60
8858;DHT22;4465;50.904;4.696;2023-06-26T13:46:50;24.20;83.00
8858;DHT22;4465;50.904;4.696;2023-06-26T13:49:16;24.10;84.40
8858;DHT22;4465;50.904;4.696;2023-06-26T13:51:42;24.10;85.10
8858;DHT22;4465;50.904;4.696;2023-06-26T13:54:12;24.20;85.70
8858;DHT22;4465;50.904;4.696;2023-06-26T13:56:38;24.30;85.00
8858;DHT22;4465;50.904;4.696;2023-06-26T13:59:06;24.40;83.50
8858;DHT22;4465;50.904;4.696;2023-06-26T14:01:32;24.30;84.20
8858;DHT22;4465;50.904;4.696;2023-06-26T14:03:58;24.30;84.20
8858;DHT22;4465;50.904;4.696;2023-06-26T14:06:24;24.40;85.00
8858;DHT22;4465;50.904;4.696;2023-06-26T14:08:50;24.40;84.20
8858;DHT22;4465;50.904;4.696;2023-06-26T14:11:16;24.30;83.90
8858;DHT22;4465;50.904;4.696;2023-06-26T14:13:42;24.30;84.30
8858;DHT22;4465;50.904;4.696;2023-06-26T14:16:08;24.20;84.80
8858;DHT22;4465;50.904;4.696;2023-06-26T14:18:38;24.20;85.30
8858;DHT22;4465;50.904;4.696;2023-06-26T14:21:04;24.20;85.70
8858;DHT22;4465;50.904;4.696;2023-06-26T14:23:34;24.20;85.40
8858;DHT22;4465;50.904;4.696;2023-06-26T14:26:02;24.10;85.30
8858;DHT22;4465;50.904;4.696;2023-06-26T14:28:28;24.00;84.80
8858;DHT22;4465;50.904;4.696;2023-06-26T14:30:54;23.90;85.10
8858;DHT22;4465;50.904;4.696;2023-06-26T14:33:20;23.90;85.30
8858;DHT22;4465;50.904;4.696;2023-06-26T14:35:48;23.80;86.00
8858;DHT22;4465;50.904;4.696;2023-06-26T14:38:17;23.80;86.50
8858;DHT22;4465;50.904;4.696;2023-06-26T14:40:42;23.80;85.70
8858;DHT22;4465;50.904;4.696;2023-06-26T14:43:13;23.80;86.30
8858;DHT22;4465;50.904;4.696;2023-06-26T14:45:39;23.80;86.00
8858;DHT22;4465;50.904;4.696;2023-06-26T14:48:07;23.80;85.90
8858;DHT22;4465;50.904;4.696;2023-06-26T14:50:33;23.70;86.30
8858;DHT22;4465;50.904;4.696;2023-06-26T14:52:59;23.70;86.10
8858;DHT22;4465;50.904;4.696;2023-06-26T14:55:28;23.70;86.50
8858;DHT22;4465;50.904;4.696;2023-06-26T14:57:54;23.70;86.20
8858;DHT22;4465;50.904;4.696;2023-06-26T15:00:22;23.70;86.40
8858;DHT22;4465;50.904;4.696;2023-06-26T15:02:48;23.80;86.60
8858;DHT22;4465;50.904;4.696;2023-06-26T15:05:14;23.70;86.20
8858;DHT22;4465;50.904;4.696;2023-06-26T15:07:43;23.80;86.40
8858;DHT22;4465;50.904;4.696;2023-06-26T15:10:11;23.70;86.20
8858;DHT22;4465;50.904;4.696;2023-06-26T15:12:37;23.70;86.30
8858;DHT22;4465;50.904;4.696;2023-06-26T15:15:07;23.60;86.70
8858;DHT22;4465;50.904;4.696;2023-06-26T15:17:35;23.60;87.10
8858;DHT22;4465;50.904;4.696;2023-06-26T15:20:04;23.70;87.50
8858;DHT22;4465;50.904;4.696;2023-06-26T15:22:30;23.70;88.00
8858;DHT22;4465;50.904;4.696;2023-06-26T15:24:58;23.80;87.50
8858;DHT22;4465;50.904;4.696;2023-06-26T15:27:24;23.80;87.70
8858;DHT22;4465;50.904;4.696;2023-06-26T15:29:50;23.80;86.30
8858;DHT22;4465;50.904;4.696;2023-06-26T15:32:18;23.80;85.40
8858;DHT22;4465;50.904;4.696;2023-06-26T15:34:45;23.60;84.80
8858;DHT22;4465;50.904;4.696;2023-06-26T15:37:12;23.50;85.00
8858;DHT22;4465;50.904;4.696;2023-06-26T15:39:38;23.40;85.80
8858;DHT22;4465;50.904;4.696;2023-06-26T15:42:07;23.50;86.40
8858;DHT22;4465;50.904;4.696;2023-06-26T15:44:35;23.50;86.50
8858;DHT22;4465;50.904;4.696;2023-06-26T15:47:01;23.40;85.60
8858;DHT22;4465;50.904;4.696;2023-06-26T15:49:27;23.40;85.70
8858;DHT22;4465;50.904;4.696;2023-06-26T15:51:53;23.40;86.00
8858;DHT22;4465;50.904;4.696;2023-06-26T15:54:19;23.30;85.60
8858;DHT22;4465;50.904;4.696;2023-06-26T15:56:52;23.20;85.50
8858;DHT22;4465;50.904;4.696;2023-06-26T15:59:20;23.20;85.60
8858;DHT22;4465;50.904;4.696;2023-06-26T16:01:46;23.20;85.90
8858;DHT22;4465;50.904;4.696;2023-06-26T16:04:14;23.10;85.70
8858;DHT22;4465;50.904;4.696;2023-06-26T16:06:42;23.10;85.80
8858;DHT22;4465;50.904;4.696;2023-06-26T16:09:08;23.10;85.80
8858;DHT22;4465;50.904;4.696;2023-06-26T16:11:34;23.00;86.00
8858;DHT22;4465;50.904;4.696;2023-06-26T16:14:00;23.00;86.50
8858;DHT22;4465;50.904;4.696;2023-06-26T16:16:26;23.00;87.10
8858;DHT22;4465;50.904;4.696;2023-06-26T16:18:52;22.90;88.00